sensor_id;sensor_type;location;lat;lon;timestamp;pressure;altitude;pressure_sealevel;temperature;humidity
43838;BME280;65998;46.256;7.534;2023-08-17T00:01:45;87544.91;;;20.72;100.00
43838;BME280;65998;46.256;7.534;2023-08-17T00:04:10;87540.81;;;20.69;100.00
43838;BME280;65998;46.256;7.534;2023-08-17T00:06:36;87546.50;;;20.67;100.00
43838;BME280;65998;46.256;7.534;2023-08-17T00:09:02;87545.13;;;20.66;100.00
43838;BME280;65998;46.256;7.534;2023-08-17T00:11:28;87552.59;;;20.71;100.00
43838;BME280;65998;46.256;7.534;2023-08-17T00:13:53;87548.97;;;20.75;100.00
43838;BME280;65998;46.256;7.534;2023-08-17T00:16:19;87549.06;;;20.73;100.00
43838;BME280;65998;46.256;7.534;2023-08-17T00:18:45;87549.06;;;20.73;100.00
43838;BME280;65998;46.256;7.534;2023-08-17T00:21:11;87545.59;;;20.72;100.00
43838;BME280;65998;46.256;7.534;2023-08-17T00:23:37;87552.59;;;20.71;100.00
43838;BME280;65998;46.256;7.534;2023-08-17T00:26:03;87545.66;;;20.70;100.00
43838;BME280;65998;46.256;7.534;2023-08-17T00:28:28;87547.63;;;20.74;100.00
43838;BME280;65998;46.256;7.534;2023-08-17T00:30:54;87548.97;;;20.75;100.00
43838;BME280;65998;46.256;7.534;2023-08-17T00:33:20;87547.63;;;20.74;100.00
43838;BME280;65998;46.256;7.534;2023-08-17T00:35:46;87543.63;;;20.69;100.00
43838;BME280;65998;46.256;7.534;2023-08-17T00:38:12;87545.22;;;20.64;100.00
43838;BME280;65998;46.256;7.534;2023-08-17T00:40:38;87545.28;;;20.62;100.00
43838;BME280;65998;46.256;7.534;2023-08-17T00:43:04;87538.34;;;20.61;100.00
43838;BME280;65998;46.256;7.534;2023-08-17T00:45:31;87539.09;;;20.59;100.00
43838;BME280;65998;46.256;7.534;2023-08-17T00:47:57;87539.47;;;20.68;100.00
43838;BME280;65998;46.256;7.534;2023-08-17T00:50:26;87538.25;;;20.63;100.00
43838;BME280;65998;46.256;7.534;2023-08-17T00:52:53;87537.66;;;20.60;100.00
43838;BME280;65998;46.256;7.534;2023-08-17T00:55:19;87533.88;;;20.68;100.00
43838;BME280;65998;46.256;7.534;2023-08-17T00:57:46;87533.28;;;20.65;100.00
43838;BME280;65998;46.256;7.534;2023-08-17T01:00:12;87527.84;;;20.61;100.00
43838;BME280;65998;46.256;7.534;2023-08-17T01:02:39;87532.75;;;20.61;100.00
43838;BME280;65998;46.256;7.534;2023-08-17T01:05:05;87524.81;;;20.49;100.00
43838;BME280;65998;46.256;7.534;2023-08-17T01:07:31;87523.63;;;20.44;100.00
43838;BME280;65998;46.256;7.534;2023-08-17T01:09:57;87526.50;;;20.42;100.00
43838;BME280;65998;46.256;7.534;2023-08-17T01:12:30;87525.88;;;20.39;100.00
43838;BME280;65998;46.256;7.534;2023-08-17T01:17:40;87532.16;;;20.39;100.00
43838;BME280;65998;46.256;7.534;2023-08-17T01:20:08;87535.72;;;20.36;100.00
43838;BME280;65998;46.256;7.534;2023-08-17T01:22:35;87535.81;;;20.34;100.00
43838;BME280;65998;46.256;7.534;2023-08-17T01:25:02;87538.53;;;20.36;100.00
43838;BME280;65998;46.256;7.534;2023-08-17T01:27:34;87543.34;;;20.37;100.00
43838;BME280;65998;46.256;7.534;2023-08-17T01:30:02;87542.69;;;20.37;100.00
43838;BME280;65998;46.256;7.534;2023-08-17T01:32:30;87533.78;;;20.32;100.00
43838;BME280;65998;46.256;7.534;2023-08-17T01:35:11;87540.72;;;20.33;100.00
43838;BME280;65998;46.256;7.534;2023-08-17T01:37:40;87536.41;;;20.36;100.00
43838;BME280;65998;46.256;7.534;2023-08-17T01:40:07;87534.25;;;20.39;100.00
43838;BME280;65998;46.256;7.534;2023-08-17T01:42:34;87537.66;;;20.42;100.00
43838;BME280;65998;46.256;7.534;2023-08-17T01:45:00;87535.53;;;20.42;100.00
43838;BME280;65998;46.256;7.534;2023-08-17T01:47:26;87535.63;;;20.40;100.00
43838;BME280;65998;46.256;7.534;2023-08-17T01:49:51;87530.84;;;20.36;100.00
43838;BME280;65998;46.256;7.534;2023-08-17T01:52:17;87527.97;;;20.38;100.00
43838;BME280;65998;46.256;7.534;2023-08-17T01:54:43;87524.66;;;20.34;100.00
43838;BME280;65998;46.256;7.534;2023-08-17T01:57:09;87529.63;;;20.31;100.00
43838;BME280;65998;46.256;7.534;2023-08-17T01:59:35;87522.00;;;20.30;100.00
43838;BME280;65998;46.256;7.534;2023-08-17T02:02:00;87526.31;;;20.27;100.00
43838;BME280;65998;46.256;7.534;2023-08-17T02:04:26;87516.88;;;20.18;100.00
43838;BME280;65998;46.256;7.534;2023-08-17T02:06:52;87523.19;;;20.16;100.00
43838;BME280;65998;46.256;7.534;2023-08-17T02:09:18;87512.09;;;20.14;100.00
43838;BME280;65998;46.256;7.534;2023-08-17T02:11:43;87518.44;;;20.13;100.00
43838;BME280;65998;46.256;7.534;2023-08-17T02:14:09;87514.38;;;20.09;100.00
43838;BME280;65998;46.256;7.534;2023-08-17T02:16:35;87504.72;;;20.06;100.00
43838;BME280;65998;46.256;7.534;2023-08-17T02:19:01;87501.91;;;20.06;100.00
43838;BME280;65998;46.256;7.534;2023-08-17T02:21:26;87503.34;;;20.05;100.00
43838;BME280;65998;46.256;7.534;2023-08-17T02:23:53;87502.53;;;20.09;100.00
43838;BME280;65998;46.256;7.534;2023-08-17T02:26:18;87495.50;;;20.10;100.00
43838;BME280;65998;46.256;7.534;2023-08-17T02:28:44;87490.53;;;20.13;100.00
43838;BME280;65998;46.256;7.534;2023-08-17T02:31:10;87492.56;;;20.14;100.00
43838;BME280;65998;46.256;7.534;2023-08-17T02:33:36;87486.25;;;20.16;100.00
43838;BME280;65998;46.256;7.534;2023-08-17T02:36:02;87484.28;;;20.12;100.00
43838;BME280;65998;46.256;7.534;2023-08-17T02:38:27;87492.72;;;20.10;100.00
43838;BME280;65998;46.256;7.534;2023-08-17T02:40:53;87489.31;;;20.07;100.00
43838;BME280;65998;46.256;7.534;2023-08-17T02:43:19;87498.44;;;20.06;100.00
43838;BME280;65998;46.256;7.534;2023-08-17T02:45:44;87492.88;;;20.06;100.00
43838;BME280;65998;46.256;7.534;2023-08-17T02:48:10;87493.53;;;20.06;100.00
43838;BME280;65998;46.256;7.534;2023-08-17T02:50:36;87482.25;;;20.11;100.00
43838;BME280;65998;46.256;7.534;2023-08-17T02:53:01;87484.44;;;20.08;100.00
43838;BME280;65998;46.256;7.534;2023-08-17T02:55:27;87479.59;;;20.06;100.00
43838;BME280;65998;46.256;7.534;2023-08-17T02:57:53;87485.94;;;20.05;100.00
43838;BME280;65998;46.256;7.534;2023-08-17T03:00:19;87476.72;;;20.08;100.00
43838;BME280;65998;46.256;7.534;2023-08-17T03:02:45;87474.78;;;20.05;100.00
43838;BME280;65998;46.256;7.534;2023-08-17T03:05:10;87472.59;;;20.07;100.00
43838;BME280;65998;46.256;7.534;2023-08-17T03:07:36;87478.16;;;20.07;100.00
43838;BME280;65998;46.256;7.534;2023-08-17T03:10:02;87476.28;;;20.02;100.00
43838;BME280;65998;46.256;7.534;2023-08-17T03:12:28;87475.81;;;19.95;100.00
43838;BME280;65998;46.256;7.534;2023-08-17T03:14:54;87477.09;;;19.98;100.00
43838;BME280;65998;46.256;7.534;2023-08-17T03:17:20;87476.97;;;20.02;100.00
43838;BME280;65998;46.256;7.534;2023-08-17T03:19:45;87469.94;;;20.03;100.00
43838;BME280;65998;46.256;7.534;2023-08-17T03:22:11;87467.84;;;20.04;100.00
43838;BME280;65998;46.256;7.534;2023-08-17T03:24:37;87463.00;;;20.02;100.00
43838;BME280;65998;46.256;7.534;2023-08-17T03:27:03;87462.25;;;20.04;100.00
43838;BME280;65998;46.256;7.534;2023-08-17T03:29:29;87458.84;;;20.01;100.00
43838;BME280;65998;46.256;7.534;2023-08-17T03:31:56;87471.53;;;19.98;100.00
43838;BME280;65998;46.256;7.534;2023-08-17T03:34:21;87474.53;;;19.92;100.00
43838;BME280;65998;46.256;7.534;2023-08-17T03:36:48;87471.06;;;19.92;100.00
43838;BME280;65998;46.256;7.534;2023-08-17T03:39:14;87468.81;;;19.96;100.00
43838;BME280;65998;46.256;7.534;2023-08-17T03:41:41;87470.25;;;19.95;100.00
43838;BME280;65998;46.256;7.534;2023-08-17T03:44:07;87469.56;;;19.95;100.00
43838;BME280;65998;46.256;7.534;2023-08-17T03:46:33;87466.84;;;19.93;100.00
43838;BME280;65998;46.256;7.534;2023-08-17T03:48:58;87461.25;;;19.93;100.00
43838;BME280;65998;46.256;7.534;2023-08-17T03:51:24;87461.19;;;19.95;100.00
43838;BME280;65998;46.256;7.534;2023-08-17T03:53:50;87473.63;;;19.98;100.00
43838;BME280;65998;46.256;7.534;2023-08-17T03:56:16;87474.25;;;20.00;100.00
43838;BME280;65998;46.256;7.534;2023-08-17T03:58:41;87471.53;;;19.98;100.00
43838;BME280;65998;46.256;7.534;2023-08-17T04:01:07;87482.81;;;19.94;100.00
43838;BME280;65998;46.256;7.534;2023-08-17T04:03:33;87475.13;;;19.95;100.00
43838;BME280;65998;46.256;7.534;2023-08-17T04:06:04;87470.25;;;19.95;100.00
43838;BME280;65998;46.256;7.534;2023-08-17T04:08:29;87475.13;;;19.95;100.00
43838;BME280;65998;46.256;7.534;2023-08-17T04:10:55;87473.91;;;19.90;100.00
43838;BME280;65998;46.256;7.534;2023-08-17T04:13:21;87476.72;;;19.90;100.00
43838;BME280;65998;46.256;7.534;2023-08-17T04:15:47;87465.63;;;19.88;100.00
43838;BME280;65998;46.256;7.534;2023-08-17T04:18:12;87458.16;;;19.82;100.00
43838;BME280;65998;46.256;7.534;2023-08-17T04:20:38;87455.44;;;19.80;100.00
43838;BME280;65998;46.256;7.534;2023-08-17T04:23:04;87456.88;;;19.79;100.00
43838;BME280;65998;46.256;7.534;2023-08-17T04:25:30;87454.16;;;19.77;100.00
43838;BME280;65998;46.256;7.534;2023-08-17T04:27:56;87459.25;;;19.70;100.00
43838;BME280;65998;46.256;7.534;2023-08-17T04:30:22;87458.56;;;19.70;100.00
43838;BME280;65998;46.256;7.534;2023-08-17T04:32:47;87457.22;;;19.69;100.00
43838;BME280;65998;46.256;7.534;2023-08-17T04:35:14;87454.41;;;19.69;100.00
43838;BME280;65998;46.256;7.534;2023-08-17T04:37:39;87457.22;;;19.69;100.00
43838;BME280;65998;46.256;7.534;2023-08-17T04:40:06;87459.38;;;19.66;100.00
43838;BME280;65998;46.256;7.534;2023-08-17T04:42:31;87462.38;;;19.60;100.00
43838;BME280;65998;46.256;7.534;2023-08-17T04:44:58;87460.34;;;19.59;100.00
43838;BME280;65998;46.256;7.534;2023-08-17T04:47:23;87461.03;;;19.59;100.00
43838;BME280;65998;46.256;7.534;2023-08-17T04:49:49;87465.91;;;19.59;100.00
43838;BME280;65998;46.256;7.534;2023-08-17T04:52:15;87463.34;;;19.53;100.00
43838;BME280;65998;46.256;7.534;2023-08-17T04:54:41;87459.81;;;19.54;100.00
43838;BME280;65998;46.256;7.534;2023-08-17T04:57:07;87465.31;;;19.56;100.00
43838;BME280;65998;46.256;7.534;2023-08-17T04:59:33;87470.13;;;19.58;100.00
43838;BME280;65998;46.256;7.534;2023-08-17T05:01:58;87464.63;;;19.56;100.00
43838;BME280;65998;46.256;7.534;2023-08-17T05:04:25;87466.66;;;19.57;100.00
43838;BME280;65998;46.256;7.534;2023-08-17T05:06:50;87469.53;;;19.55;100.00
43838;BME280;65998;46.256;7.534;2023-08-17T05:09:16;87474.50;;;19.53;100.00
43838;BME280;65998;46.256;7.534;2023-08-17T05:11:42;87472.44;;;19.51;100.00
43838;BME280;65998;46.256;7.534;2023-08-17T05:14:08;87466.13;;;19.53;100.00
43838;BME280;65998;46.256;7.534;2023-08-17T05:16:33;87477.28;;;19.53;100.00
43838;BME280;65998;46.256;7.534;2023-08-17T05:18:59;87475.91;;;19.52;100.00
43838;BME280;65998;46.256;7.534;2023-08-17T05:21:25;87478.44;;;19.60;100.00
43838;BME280;65998;46.256;7.534;2023-08-17T05:23:51;87480.41;;;19.63;100.00
43838;BME280;65998;46.256;7.534;2023-08-17T05:26:17;87477.47;;;19.67;100.00
43838;BME280;65998;46.256;7.534;2023-08-17T05:28:43;87470.41;;;19.70;100.00
43838;BME280;65998;46.256;7.534;2023-08-17T05:31:09;87469.66;;;19.72;100.00
43838;BME280;65998;46.256;7.534;2023-08-17T05:33:35;87475.75;;;19.76;100.00
43838;BME280;65998;46.256;7.534;2023-08-17T05:36:00;87470.81;;;19.79;100.00
43838;BME280;65998;46.256;7.534;2023-08-17T05:38:26;87467.13;;;19.85;100.00
43838;BME280;65998;46.256;7.534;2023-08-17T05:40:55;87471.81;;;19.90;100.00
43838;BME280;65998;46.256;7.534;2023-08-17T05:43:22;87464.19;;;19.89;100.00
43838;BME280;65998;46.256;7.534;2023-08-17T05:45:48;87464.88;;;19.89;100.00
43838;BME280;65998;46.256;7.534;2023-08-17T05:48:14;87471.81;;;19.90;100.00
43838;BME280;65998;46.256;7.534;2023-08-17T05:50:42;87459.84;;;19.94;100.00
43838;BME280;65998;46.256;7.534;2023-08-17T05:53:08;87474.31;;;19.98;100.00
43838;BME280;65998;46.256;7.534;2023-08-17T05:55:34;87464.44;;;20.01;100.00
43838;BME280;65998;46.256;7.534;2023-08-17T05:58:00;87466.47;;;20.03;100.00
43838;BME280;65998;46.256;7.534;2023-08-17T06:00:26;87464.38;;;20.03;100.00
43838;BME280;65998;46.256;7.534;2023-08-17T06:02:52;87459.69;;;19.98;100.00
43838;BME280;65998;46.256;7.534;2023-08-17T06:05:17;87463.16;;;19.98;100.00
43838;BME280;65998;46.256;7.534;2023-08-17T06:07:43;87463.84;;;19.99;100.00
43838;BME280;65998;46.256;7.534;2023-08-17T06:10:09;87465.19;;;20.00;100.00
43838;BME280;65998;46.256;7.534;2023-08-17T06:12:36;87472.81;;;20.01;100.00
43838;BME280;65998;46.256;7.534;2023-08-17T06:15:01;87470.47;;;20.08;100.00
43838;BME280;65998;46.256;7.534;2023-08-17T06:17:28;87472.97;;;20.16;100.00
43838;BME280;65998;46.256;7.534;2023-08-17T06:19:53;87468.44;;;20.25;100.00
43838;BME280;65998;46.256;7.534;2023-08-17T06:22:19;87463.16;;;20.36;100.00
43838;BME280;65998;46.256;7.534;2023-08-17T06:24:45;87469.31;;;20.40;100.00
43838;BME280;65998;46.256;7.534;2023-08-17T06:27:14;87469.06;;;20.47;100.00
43838;BME280;65998;46.256;7.534;2023-08-17T06:29:40;87469.69;;;20.49;100.00
43838;BME280;65998;46.256;7.534;2023-08-17T06:32:06;87464.53;;;20.56;100.00
43838;BME280;65998;46.256;7.534;2023-08-17T06:34:32;87465.00;;;20.62;100.00
43838;BME280;65998;46.256;7.534;2023-08-17T06:36:58;87462.72;;;20.67;93.89
43838;BME280;65998;46.256;7.534;2023-08-17T06:39:25;87470.84;;;20.73;100.00
43838;BME280;65998;46.256;7.534;2023-08-17T06:41:51;87466.47;;;20.78;100.00
43838;BME280;65998;46.256;7.534;2023-08-17T06:44:16;87466.88;;;20.87;100.00
43838;BME280;65998;46.256;7.534;2023-08-17T06:46:42;87468.97;;;20.86;100.00
43838;BME280;65998;46.256;7.534;2023-08-17T06:49:08;87467.03;;;20.83;96.99
43838;BME280;65998;46.256;7.534;2023-08-17T06:51:34;87473.28;;;20.83;90.19
43838;BME280;65998;46.256;7.534;2023-08-17T06:53:59;87474.09;;;20.80;90.94
43838;BME280;65998;46.256;7.534;2023-08-17T06:56:25;87470.69;;;20.77;84.79
43838;BME280;65998;46.256;7.534;2023-08-17T06:58:51;87473.50;;;20.77;84.29
43838;BME280;65998;46.256;7.534;2023-08-17T07:01:17;87472.97;;;20.72;81.56
43838;BME280;65998;46.256;7.534;2023-08-17T07:03:43;87469.41;;;20.74;82.31
43838;BME280;65998;46.256;7.534;2023-08-17T07:06:09;87467.53;;;20.68;82.23
43838;BME280;65998;46.256;7.534;2023-08-17T07:08:35;87467.38;;;20.72;77.98
43838;BME280;65998;46.256;7.534;2023-08-17T07:11:01;87472.44;;;20.68;79.17
43838;BME280;65998;46.256;7.534;2023-08-17T07:13:27;87471.63;;;20.71;81.70
43838;BME280;65998;46.256;7.534;2023-08-17T07:15:53;87469.50;;;20.91;84.63
43838;BME280;65998;46.256;7.534;2023-08-17T07:18:18;87467.22;;;20.95;84.67
43838;BME280;65998;46.256;7.534;2023-08-17T07:20:45;87467.38;;;20.91;78.04
43838;BME280;65998;46.256;7.534;2023-08-17T07:23:10;87463.94;;;21.08;83.85
43838;BME280;65998;46.256;7.534;2023-08-17T07:25:36;87474.72;;;21.18;74.24
43838;BME280;65998;46.256;7.534;2023-08-17T07:28:02;87471.78;;;21.39;74.64
43838;BME280;65998;46.256;7.534;2023-08-17T07:30:28;87473.00;;;21.60;70.87
43838;BME280;65998;46.256;7.534;2023-08-17T07:32:54;87477.06;;;21.80;67.47
43838;BME280;65998;46.256;7.534;2023-08-17T07:35:20;87473.50;;;21.82;61.65
43838;BME280;65998;46.256;7.534;2023-08-17T07:37:46;87487.06;;;22.09;69.95
43838;BME280;65998;46.256;7.534;2023-08-17T07:40:12;87489.13;;;22.10;74.30
43838;BME280;65998;46.256;7.534;2023-08-17T07:42:37;87491.56;;;22.02;79.58
43838;BME280;65998;46.256;7.534;2023-08-17T07:45:04;87490.56;;;21.92;78.07
43838;BME280;65998;46.256;7.534;2023-08-17T07:47:29;87485.28;;;21.67;69.82
43838;BME280;65998;46.256;7.534;2023-08-17T07:49:55;87493.59;;;21.86;75.45
43838;BME280;65998;46.256;7.534;2023-08-17T07:52:21;87491.56;;;22.02;71.58
43838;BME280;65998;46.256;7.534;2023-08-17T07:54:47;87487.75;;;22.09;71.50
43838;BME280;65998;46.256;7.534;2023-08-17T07:57:13;87502.84;;;22.16;73.38
43838;BME280;65998;46.256;7.534;2023-08-17T07:59:39;87500.31;;;22.10;70.66
43838;BME280;65998;46.256;7.534;2023-08-17T08:02:04;87502.34;;;22.12;81.24
43838;BME280;65998;46.256;7.534;2023-08-17T08:04:31;87500.22;;;22.12;80.91
43838;BME280;65998;46.256;7.534;2023-08-17T08:06:56;87507.84;;;22.14;81.36
43838;BME280;65998;46.256;7.534;2023-08-17T08:09:22;87512.19;;;22.11;85.23
43838;BME280;65998;46.256;7.534;2023-08-17T08:11:48;87506.00;;;22.08;84.30
43838;BME280;65998;46.256;7.534;2023-08-17T08:14:14;87502.50;;;22.08;87.68
43838;BME280;65998;46.256;7.534;2023-08-17T08:16:40;87504.81;;;22.03;86.62
43838;BME280;65998;46.256;7.534;2023-08-17T08:19:06;87502.16;;;21.99;85.27
43838;BME280;65998;46.256;7.534;2023-08-17T08:21:31;87503.69;;;21.96;81.31
43838;BME280;65998;46.256;7.534;2023-08-17T08:23:57;87497.78;;;22.04;86.04
43838;BME280;65998;46.256;7.534;2023-08-17T08:26:23;87499.63;;;22.10;77.33
43838;BME280;65998;46.256;7.534;2023-08-17T08:28:49;87494.34;;;22.18;74.31
43838;BME280;65998;46.256;7.534;2023-08-17T08:31:14;87490.44;;;22.28;73.96
43838;BME280;65998;46.256;7.534;2023-08-17T08:33:41;87499.47;;;22.45;72.75
43838;BME280;65998;46.256;7.534;2023-08-17T08:36:06;87499.97;;;22.50;71.21
43838;BME280;65998;46.256;7.534;2023-08-17T08:38:33;87501.50;;;22.47;68.79
43838;BME280;65998;46.256;7.534;2023-08-17T08:40:58;87506.41;;;22.15;69.84
43838;BME280;65998;46.256;7.534;2023-08-17T08:43:24;87502.06;;;22.18;79.85
43838;BME280;65998;46.256;7.534;2023-08-17T08:45:51;87493.19;;;22.13;80.00
43838;BME280;65998;46.256;7.534;2023-08-17T08:48:18;87496.06;;;22.91;73.07
43838;BME280;65998;46.256;7.534;2023-08-17T08:50:46;87490.19;;;23.71;67.12
43838;BME280;65998;46.256;7.534;2023-08-17T08:53:15;87500.56;;;24.71;63.05
43838;BME280;65998;46.256;7.534;2023-08-17T08:56:02;87495.03;;;26.36;58.00
43838;BME280;65998;46.256;7.534;2023-08-17T08:58:27;87488.13;;;27.40;50.15
43838;BME280;65998;46.256;7.534;2023-08-17T09:00:53;87493.56;;;27.99;47.34
43838;BME280;65998;46.256;7.534;2023-08-17T09:03:20;87488.25;;;26.67;49.91
43838;BME280;65998;46.256;7.534;2023-08-17T09:05:47;87485.09;;;25.76;52.96
43838;BME280;65998;46.256;7.534;2023-08-17T09:08:14;87490.59;;;25.53;50.25
43838;BME280;65998;46.256;7.534;2023-08-17T09:10:41;87491.38;;;25.64;52.62
43838;BME280;65998;46.256;7.534;2023-08-17T09:13:07;87495.09;;;25.48;56.00
43838;BME280;65998;46.256;7.534;2023-08-17T09:15:33;87495.22;;;25.33;54.38
43838;BME280;65998;46.256;7.534;2023-08-17T09:17:59;87494.19;;;25.13;57.44
43838;BME280;65998;46.256;7.534;2023-08-17T09:20:37;87485.97;;;25.09;56.64
43838;BME280;65998;46.256;7.534;2023-08-17T09:23:04;87482.41;;;24.96;54.39
43838;BME280;65998;46.256;7.534;2023-08-17T09:25:30;87482.25;;;24.72;53.95
43838;BME280;65998;46.256;7.534;2023-08-17T09:27:57;87487.16;;;24.59;57.54
43838;BME280;65998;46.256;7.534;2023-08-17T09:30:23;87483.06;;;24.43;58.32
43838;BME280;65998;46.256;7.534;2023-08-17T09:32:49;87483.91;;;24.27;60.49
43838;BME280;65998;46.256;7.534;2023-08-17T09:35:15;87477.63;;;24.12;61.05
43838;BME280;65998;46.256;7.534;2023-08-17T09:37:41;87481.16;;;23.98;63.11
43838;BME280;65998;46.256;7.534;2023-08-17T09:40:06;87480.69;;;23.78;60.18
43838;BME280;65998;46.256;7.534;2023-08-17T09:42:36;87490.47;;;23.65;58.29
43838;BME280;65998;46.256;7.534;2023-08-17T09:45:02;87483.50;;;23.49;60.59
43838;BME280;65998;46.256;7.534;2023-08-17T09:47:28;87483.72;;;23.45;65.53
43838;BME280;65998;46.256;7.534;2023-08-17T09:49:54;87478.19;;;23.28;60.96
43838;BME280;65998;46.256;7.534;2023-08-17T09:52:21;87475.09;;;23.19;63.54
43838;BME280;65998;46.256;7.534;2023-08-17T09:54:47;87475.31;;;23.30;63.87
43838;BME280;65998;46.256;7.534;2023-08-17T09:57:13;87474.91;;;23.23;69.30
43838;BME280;65998;46.256;7.534;2023-08-17T09:59:40;87472.09;;;23.09;67.70
43838;BME280;65998;46.256;7.534;2023-08-17T10:02:39;87474.16;;;22.79;65.78
43838;BME280;65998;46.256;7.534;2023-08-17T10:04:58;87485.22;;;22.66;66.42
43838;BME280;65998;46.256;7.534;2023-08-17T10:07:27;87480.31;;;22.35;73.57
43838;BME280;65998;46.256;7.534;2023-08-17T10:10:04;87475.38;;;21.87;76.40
43838;BME280;65998;46.256;7.534;2023-08-17T10:12:37;87483.59;;;21.75;83.18
43838;BME280;65998;46.256;7.534;2023-08-17T10:15:11;87486.22;;;21.62;86.76
43838;BME280;65998;46.256;7.534;2023-08-17T10:17:44;87486.88;;;21.62;82.08
43838;BME280;65998;46.256;7.534;2023-08-17T10:20:14;87482.16;;;21.76;82.41
43838;BME280;65998;46.256;7.534;2023-08-17T10:23:01;87486.56;;;21.71;80.05
43838;BME280;65998;46.256;7.534;2023-08-17T10:25:29;87488.16;;;21.82;78.44
43838;BME280;65998;46.256;7.534;2023-08-17T10:27:56;87486.22;;;21.79;74.01
43838;BME280;65998;46.256;7.534;2023-08-17T10:30:22;87483.34;;;21.97;78.26
43838;BME280;65998;46.256;7.534;2023-08-17T10:32:48;87487.22;;;22.21;89.14
43838;BME280;65998;46.256;7.534;2023-08-17T10:35:14;87487.06;;;22.25;80.43
43838;BME280;65998;46.256;7.534;2023-08-17T10:37:41;87486.50;;;22.38;81.96
43838;BME280;65998;46.256;7.534;2023-08-17T10:40:07;87479.19;;;22.45;84.88
43838;BME280;65998;46.256;7.534;2023-08-17T10:42:34;87485.28;;;22.49;80.56
43838;BME280;65998;46.256;7.534;2023-08-17T10:45:01;87481.53;;;22.55;85.85
43838;BME280;65998;46.256;7.534;2023-08-17T10:47:28;87488.50;;;22.56;85.49
43838;BME280;65998;46.256;7.534;2023-08-17T10:54:55;87500.91;;;22.44;73.60
43838;BME280;65998;46.256;7.534;2023-08-17T11:00:06;87499.84;;;22.37;72.67
43838;BME280;65998;46.256;7.534;2023-08-17T11:02:32;87497.47;;;22.27;71.11
43838;BME280;65998;46.256;7.534;2023-08-17T11:05:01;87494.28;;;22.04;84.38
43838;BME280;65998;46.256;7.534;2023-08-17T11:07:27;87492.25;;;21.85;89.07
43838;BME280;65998;46.256;7.534;2023-08-17T11:10:11;87492.22;;;21.68;89.30
43838;BME280;65998;46.256;7.534;2023-08-17T11:12:36;87495.88;;;21.48;84.63
43838;BME280;65998;46.256;7.534;2023-08-17T11:15:03;87493.81;;;21.30;92.17
43838;BME280;65998;46.256;7.534;2023-08-17T11:17:29;87493.44;;;21.21;100.00
43838;BME280;65998;46.256;7.534;2023-08-17T11:19:55;87499.88;;;21.18;100.00
43838;BME280;65998;46.256;7.534;2023-08-17T11:22:20;87500.34;;;21.06;85.74
43838;BME280;65998;46.256;7.534;2023-08-17T11:24:47;87513.19;;;20.80;96.93
43838;BME280;65998;46.256;7.534;2023-08-17T11:27:13;87508.75;;;20.49;100.00
43838;BME280;65998;46.256;7.534;2023-08-17T11:29:40;87514.44;;;20.07;100.00
43838;BME280;65998;46.256;7.534;2023-08-17T11:32:06;87517.53;;;19.79;100.00
43838;BME280;65998;46.256;7.534;2023-08-17T11:34:32;87518.22;;;19.79;100.00
43838;BME280;65998;46.256;7.534;2023-08-17T11:36:57;87507.75;;;19.80;100.00
43838;BME280;65998;46.256;7.534;2023-08-17T11:39:23;87496.91;;;19.69;100.00
43838;BME280;65998;46.256;7.534;2023-08-17T11:41:49;87489.22;;;19.70;100.00
43838;BME280;65998;46.256;7.534;2023-08-17T11:44:15;87493.81;;;19.59;100.00
43838;BME280;65998;46.256;7.534;2023-08-17T11:46:44;87495.41;;;19.52;100.00
43838;BME280;65998;46.256;7.534;2023-08-17T11:49:10;87499.06;;;19.04;100.00
43838;BME280;65998;46.256;7.534;2023-08-17T11:51:36;87498.13;;;19.12;100.00
43838;BME280;65998;46.256;7.534;2023-08-17T11:54:02;87491.41;;;19.26;100.00
43838;BME280;65998;46.256;7.534;2023-08-17T11:56:28;87493.91;;;19.13;100.00
43838;BME280;65998;46.256;7.534;2023-08-17T11:58:54;87491.56;;;18.99;100.00
43838;BME280;65998;46.256;7.534;2023-08-17T12:01:19;87500.84;;;19.14;100.00
43838;BME280;65998;46.256;7.534;2023-08-17T12:03:45;87495.41;;;19.31;100.00
43838;BME280;65998;46.256;7.534;2023-08-17T12:06:13;87499.50;;;19.55;100.00
43838;BME280;65998;46.256;7.534;2023-08-17T12:08:45;87493.06;;;19.81;100.00
43838;BME280;65998;46.256;7.534;2023-08-17T12:11:11;87493.31;;;20.13;94.42
43838;BME280;65998;46.256;7.534;2023-08-17T12:13:37;87481.28;;;20.75;99.51
43838;BME280;65998;46.256;7.534;2023-08-17T12:16:03;87466.41;;;21.16;77.32
43838;BME280;65998;46.256;7.534;2023-08-17T12:18:31;87456.03;;;21.48;72.41
43838;BME280;65998;46.256;7.534;2023-08-17T12:20:57;87460.28;;;21.63;92.13
43838;BME280;65998;46.256;7.534;2023-08-17T12:23:23;87453.06;;;21.68;97.99
43838;BME280;65998;46.256;7.534;2023-08-17T12:25:54;87450.44;;;21.48;84.76
43838;BME280;65998;46.256;7.534;2023-08-17T12:28:22;87446.81;;;21.34;83.87
43838;BME280;65998;46.256;7.534;2023-08-17T12:30:47;87442.41;;;21.40;75.80
43838;BME280;65998;46.256;7.534;2023-08-17T12:33:22;87440.78;;;21.61;72.73
43838;BME280;65998;46.256;7.534;2023-08-17T12:35:48;87431.13;;;21.75;68.29
43838;BME280;65998;46.256;7.534;2023-08-17T12:38:14;87441.81;;;22.04;73.66
43838;BME280;65998;46.256;7.534;2023-08-17T12:40:40;87442.81;;;22.13;73.10
43838;BME280;65998;46.256;7.534;2023-08-17T12:43:06;87436.66;;;22.25;74.36
43838;BME280;65998;46.256;7.534;2023-08-17T12:45:32;87440.91;;;22.24;69.17
43838;BME280;65998;46.256;7.534;2023-08-17T12:47:59;87439.81;;;22.17;63.57
43838;BME280;65998;46.256;7.534;2023-08-17T12:50:24;87441.03;;;22.37;65.02
43838;BME280;65998;46.256;7.534;2023-08-17T12:52:51;87449.03;;;22.30;59.30
43838;BME280;65998;46.256;7.534;2023-08-17T12:55:16;87443.94;;;22.04;57.40
43838;BME280;65998;46.256;7.534;2023-08-17T12:57:42;87449.00;;;21.99;55.89
43838;BME280;65998;46.256;7.534;2023-08-17T13:00:08;87435.94;;;22.42;56.15
43838;BME280;65998;46.256;7.534;2023-08-17T13:02:34;87438.25;;;22.52;56.54